Terminal Aerodrome Forecast
Issued by NWS

Home | Current Version | Previous Version | Text Only | Print | Product List | Glossary On
Versions: 1 2 3 4 5 6 7 8 9 10 11 12 13 14 15 16 17 18 19 20 21 22 23 24 25 26 27 28 29 30 31 32 33 34 35 36 37 38 39 40 41
000
FTUS42 KRAH 220522
TAFRWI
TAF
KRWI 220522Z 2206/2306 00000KT P6SM BKN015 OVC120
     FM220800 07004KT 4SM BR BKN008 OVC035
      TEMPO 2209/2212 2SM BR OVC003
     FM221400 06005KT P6SM BKN015 BKN150
     FM221700 06005KT P6SM VCSH SCT025 BKN035 BKN150
     FM230300 VRB04KT P6SM BKN012 BKN120=

USA.gov is the U.S. government's official web portal to all federal, state and local government web resources and services.